sensor_id;sensor_type;location;lat;lon;timestamp;P1;durP1;ratioP1;P2;durP2;ratioP2
20421;SDS011;10370;53.102;18.034;2023-09-19T00:03:00;39.80;;;26.23;;
20421;SDS011;10370;53.102;18.034;2023-09-19T00:08:22;37.60;;;26.02;;
20421;SDS011;10370;53.102;18.034;2023-09-19T00:13:47;37.15;;;24.95;;
20421;SDS011;10370;53.102;18.034;2023-09-19T00:19:12;36.78;;;25.83;;
20421;SDS011;10370;53.102;18.034;2023-09-19T00:24:36;34.92;;;24.00;;
20421;SDS011;10370;53.102;18.034;2023-09-19T00:29:58;25.70;;;16.63;;
20421;SDS011;10370;53.102;18.034;2023-09-19T00:35:22;21.13;;;12.98;;
20421;SDS011;10370;53.102;18.034;2023-09-19T00:40:49;13.63;;;9.60;;
20421;SDS011;10370;53.102;18.034;2023-09-19T00:46:16;19.00;;;9.77;;
20421;SDS011;10370;53.102;18.034;2023-09-19T00:51:39;16.90;;;9.90;;
20421;SDS011;10370;53.102;18.034;2023-09-19T00:57:07;14.38;;;9.73;;
20421;SDS011;10370;53.102;18.034;2023-09-19T01:02:31;20.45;;;10.50;;
20421;SDS011;10370;53.102;18.034;2023-09-19T01:07:54;18.40;;;11.48;;
20421;SDS011;10370;53.102;18.034;2023-09-19T01:13:35;15.10;;;10.75;;
20421;SDS011;10370;53.102;18.034;2023-09-19T01:30:47;15.07;;;10.45;;
20421;SDS011;10370;53.102;18.034;2023-09-19T01:36:19;15.68;;;9.32;;
20421;SDS011;10370;53.102;18.034;2023-09-19T01:47:19;13.77;;;8.82;;
20421;SDS011;10370;53.102;18.034;2023-09-19T01:52:49;16.15;;;9.63;;
20421;SDS011;10370;53.102;18.034;2023-09-19T01:58:42;19.63;;;10.30;;
20421;SDS011;10370;53.102;18.034;2023-09-19T02:04:10;18.13;;;11.15;;
20421;SDS011;10370;53.102;18.034;2023-09-19T02:09:32;17.67;;;11.23;;
20421;SDS011;10370;53.102;18.034;2023-09-19T02:14:57;14.40;;;10.05;;
20421;SDS011;10370;53.102;18.034;2023-09-19T02:20:19;14.65;;;9.98;;
20421;SDS011;10370;53.102;18.034;2023-09-19T02:25:42;16.95;;;9.75;;
20421;SDS011;10370;53.102;18.034;2023-09-19T02:31:13;16.55;;;9.00;;
20421;SDS011;10370;53.102;18.034;2023-09-19T02:36:36;17.83;;;8.55;;
20421;SDS011;10370;53.102;18.034;2023-09-19T02:41:58;13.07;;;8.38;;
20421;SDS011;10370;53.102;18.034;2023-09-19T02:47:22;11.55;;;7.45;;
20421;SDS011;10370;53.102;18.034;2023-09-19T02:52:58;21.83;;;8.50;;
20421;SDS011;10370;53.102;18.034;2023-09-19T02:58:21;13.13;;;7.70;;
20421;SDS011;10370;53.102;18.034;2023-09-19T03:03:45;11.50;;;7.20;;
20421;SDS011;10370;53.102;18.034;2023-09-19T03:09:08;14.00;;;7.25;;
20421;SDS011;10370;53.102;18.034;2023-09-19T03:14:33;11.27;;;7.00;;
20421;SDS011;10370;53.102;18.034;2023-09-19T03:19:57;9.52;;;6.82;;
20421;SDS011;10370;53.102;18.034;2023-09-19T03:25:19;12.40;;;6.78;;
20421;SDS011;10370;53.102;18.034;2023-09-19T03:30:44;12.18;;;6.80;;
20421;SDS011;10370;53.102;18.034;2023-09-19T03:36:07;12.50;;;7.15;;
20421;SDS011;10370;53.102;18.034;2023-09-19T03:41:30;12.65;;;6.28;;
20421;SDS011;10370;53.102;18.034;2023-09-19T03:46:54;8.18;;;5.55;;
20421;SDS011;10370;53.102;18.034;2023-09-19T03:52:18;12.23;;;5.70;;
20421;SDS011;10370;53.102;18.034;2023-09-19T03:57:40;8.82;;;5.47;;
20421;SDS011;10370;53.102;18.034;2023-09-19T04:03:03;9.38;;;5.65;;
20421;SDS011;10370;53.102;18.034;2023-09-19T04:08:28;12.70;;;5.57;;
20421;SDS011;10370;53.102;18.034;2023-09-19T04:13:51;11.52;;;6.22;;
20421;SDS011;10370;53.102;18.034;2023-09-19T04:19:14;10.85;;;5.88;;
20421;SDS011;10370;53.102;18.034;2023-09-19T04:24:36;13.93;;;6.10;;
20421;SDS011;10370;53.102;18.034;2023-09-19T04:29:59;11.68;;;5.88;;
20421;SDS011;10370;53.102;18.034;2023-09-19T04:35:31;12.82;;;5.95;;
20421;SDS011;10370;53.102;18.034;2023-09-19T04:40:57;11.80;;;5.55;;
20421;SDS011;10370;53.102;18.034;2023-09-19T04:46:20;10.45;;;6.28;;
20421;SDS011;10370;53.102;18.034;2023-09-19T04:51:43;11.10;;;5.60;;
20421;SDS011;10370;53.102;18.034;2023-09-19T04:57:08;12.48;;;6.30;;
20421;SDS011;10370;53.102;18.034;2023-09-19T05:02:31;9.00;;;5.32;;
20421;SDS011;10370;53.102;18.034;2023-09-19T05:07:53;8.65;;;5.40;;
20421;SDS011;10370;53.102;18.034;2023-09-19T05:13:17;8.73;;;5.75;;
20421;SDS011;10370;53.102;18.034;2023-09-19T05:18:40;13.27;;;5.80;;
20421;SDS011;10370;53.102;18.034;2023-09-19T05:24:03;10.20;;;5.40;;
20421;SDS011;10370;53.102;18.034;2023-09-19T05:29:25;11.60;;;6.05;;
20421;SDS011;10370;53.102;18.034;2023-09-19T05:34:48;8.07;;;5.10;;
20421;SDS011;10370;53.102;18.034;2023-09-19T05:40:11;8.68;;;5.50;;
20421;SDS011;10370;53.102;18.034;2023-09-19T05:45:34;10.40;;;5.10;;
20421;SDS011;10370;53.102;18.034;2023-09-19T05:50:58;7.50;;;4.20;;
20421;SDS011;10370;53.102;18.034;2023-09-19T05:56:21;10.27;;;4.15;;
20421;SDS011;10370;53.102;18.034;2023-09-19T06:01:44;5.88;;;4.18;;
20421;SDS011;10370;53.102;18.034;2023-09-19T06:07:08;8.70;;;4.47;;
20421;SDS011;10370;53.102;18.034;2023-09-19T06:12:30;8.95;;;4.60;;
20421;SDS011;10370;53.102;18.034;2023-09-19T06:17:55;8.45;;;4.93;;
20421;SDS011;10370;53.102;18.034;2023-09-19T06:23:18;9.32;;;4.93;;
20421;SDS011;10370;53.102;18.034;2023-09-19T06:28:42;7.05;;;5.10;;
20421;SDS011;10370;53.102;18.034;2023-09-19T06:34:05;12.25;;;6.38;;
20421;SDS011;10370;53.102;18.034;2023-09-19T06:39:28;10.82;;;7.18;;
20421;SDS011;10370;53.102;18.034;2023-09-19T06:44:52;10.93;;;7.50;;
20421;SDS011;10370;53.102;18.034;2023-09-19T06:50:15;10.70;;;7.53;;
20421;SDS011;10370;53.102;18.034;2023-09-19T06:55:40;12.80;;;7.80;;
20421;SDS011;10370;53.102;18.034;2023-09-19T07:01:05;11.73;;;8.15;;
20421;SDS011;10370;53.102;18.034;2023-09-19T07:06:28;12.85;;;8.10;;
20421;SDS011;10370;53.102;18.034;2023-09-19T07:11:51;14.50;;;8.27;;
20421;SDS011;10370;53.102;18.034;2023-09-19T07:17:13;12.13;;;8.07;;
20421;SDS011;10370;53.102;18.034;2023-09-19T07:22:39;12.93;;;8.40;;
20421;SDS011;10370;53.102;18.034;2023-09-19T07:28:02;14.40;;;8.75;;
20421;SDS011;10370;53.102;18.034;2023-09-19T07:33:25;12.63;;;8.50;;
20421;SDS011;10370;53.102;18.034;2023-09-19T07:38:48;13.25;;;8.50;;
20421;SDS011;10370;53.102;18.034;2023-09-19T07:44:11;15.05;;;9.00;;
20421;SDS011;10370;53.102;18.034;2023-09-19T07:49:33;14.18;;;8.73;;
20421;SDS011;10370;53.102;18.034;2023-09-19T07:54:56;13.90;;;9.23;;
20421;SDS011;10370;53.102;18.034;2023-09-19T08:00:19;13.82;;;9.00;;
20421;SDS011;10370;53.102;18.034;2023-09-19T08:05:43;10.57;;;8.00;;
20421;SDS011;10370;53.102;18.034;2023-09-19T08:11:07;15.20;;;7.47;;
20421;SDS011;10370;53.102;18.034;2023-09-19T08:16:34;16.65;;;7.90;;
20421;SDS011;10370;53.102;18.034;2023-09-19T08:22:00;10.30;;;6.68;;
20421;SDS011;10370;53.102;18.034;2023-09-19T08:27:23;11.10;;;7.70;;
20421;SDS011;10370;53.102;18.034;2023-09-19T08:32:48;11.52;;;7.20;;
20421;SDS011;10370;53.102;18.034;2023-09-19T08:38:23;10.55;;;7.30;;
20421;SDS011;10370;53.102;18.034;2023-09-19T08:43:45;11.20;;;7.30;;
20421;SDS011;10370;53.102;18.034;2023-09-19T08:49:16;17.10;;;7.03;;
20421;SDS011;10370;53.102;18.034;2023-09-19T08:54:52;9.82;;;6.93;;
20421;SDS011;10370;53.102;18.034;2023-09-19T09:00:20;11.35;;;7.13;;
20421;SDS011;10370;53.102;18.034;2023-09-19T09:05:44;10.07;;;6.57;;
20421;SDS011;10370;53.102;18.034;2023-09-19T09:11:09;6.88;;;5.05;;
20421;SDS011;10370;53.102;18.034;2023-09-19T09:16:35;7.95;;;4.60;;
20421;SDS011;10370;53.102;18.034;2023-09-19T09:22:11;9.07;;;4.40;;
20421;SDS011;10370;53.102;18.034;2023-09-19T09:27:34;7.68;;;4.82;;
20421;SDS011;10370;53.102;18.034;2023-09-19T09:33:07;7.70;;;3.83;;
20421;SDS011;10370;53.102;18.034;2023-09-19T09:38:46;6.70;;;3.63;;
20421;SDS011;10370;53.102;18.034;2023-09-19T09:44:17;6.85;;;3.80;;
20421;SDS011;10370;53.102;18.034;2023-09-19T09:49:41;5.13;;;3.00;;
20421;SDS011;10370;53.102;18.034;2023-09-19T09:55:16;5.82;;;3.25;;
20421;SDS011;10370;53.102;18.034;2023-09-19T10:00:52;6.57;;;3.10;;
20421;SDS011;10370;53.102;18.034;2023-09-19T10:06:19;4.07;;;2.80;;
20421;SDS011;10370;53.102;18.034;2023-09-19T10:11:46;6.43;;;3.17;;
20421;SDS011;10370;53.102;18.034;2023-09-19T10:17:18;5.63;;;2.88;;
20421;SDS011;10370;53.102;18.034;2023-09-19T10:22:45;5.28;;;2.78;;
20421;SDS011;10370;53.102;18.034;2023-09-19T10:28:20;5.80;;;2.67;;
20421;SDS011;10370;53.102;18.034;2023-09-19T10:33:46;2.65;;;2.33;;
20421;SDS011;10370;53.102;18.034;2023-09-19T10:39:11;3.70;;;2.78;;
20421;SDS011;10370;53.102;18.034;2023-09-19T10:44:40;5.78;;;2.63;;
20421;SDS011;10370;53.102;18.034;2023-09-19T10:50:06;4.47;;;2.60;;
20421;SDS011;10370;53.102;18.034;2023-09-19T10:55:34;6.50;;;2.38;;
20421;SDS011;10370;53.102;18.034;2023-09-19T11:00:58;5.47;;;2.28;;
20421;SDS011;10370;53.102;18.034;2023-09-19T11:06:40;3.40;;;2.25;;
20421;SDS011;10370;53.102;18.034;2023-09-19T11:12:03;4.35;;;2.35;;
20421;SDS011;10370;53.102;18.034;2023-09-19T11:17:30;3.50;;;2.50;;
20421;SDS011;10370;53.102;18.034;2023-09-19T11:28:44;6.10;;;2.90;;
20421;SDS011;10370;53.102;18.034;2023-09-19T11:40:06;4.30;;;2.80;;
20421;SDS011;10370;53.102;18.034;2023-09-19T11:51:11;4.60;;;2.30;;
20421;SDS011;10370;53.102;18.034;2023-09-19T11:56:41;6.03;;;2.40;;
20421;SDS011;10370;53.102;18.034;2023-09-19T12:02:05;5.60;;;2.13;;
20421;SDS011;10370;53.102;18.034;2023-09-19T12:07:30;3.45;;;1.80;;
20421;SDS011;10370;53.102;18.034;2023-09-19T12:13:07;4.07;;;2.00;;
20421;SDS011;10370;53.102;18.034;2023-09-19T12:18:32;6.07;;;2.05;;
20421;SDS011;10370;53.102;18.034;2023-09-19T12:23:58;6.43;;;2.15;;
20421;SDS011;10370;53.102;18.034;2023-09-19T12:29:21;5.25;;;2.40;;
20421;SDS011;10370;53.102;18.034;2023-09-19T12:34:50;4.68;;;2.20;;
20421;SDS011;10370;53.102;18.034;2023-09-19T12:40:15;4.05;;;2.10;;
20421;SDS011;10370;53.102;18.034;2023-09-19T12:45:39;7.05;;;1.90;;
20421;SDS011;10370;53.102;18.034;2023-09-19T12:51:07;4.60;;;2.30;;
20421;SDS011;10370;53.102;18.034;2023-09-19T12:56:45;3.42;;;2.25;;
20421;SDS011;10370;53.102;18.034;2023-09-19T13:02:10;5.43;;;2.10;;
20421;SDS011;10370;53.102;18.034;2023-09-19T13:07:43;5.93;;;2.40;;
20421;SDS011;10370;53.102;18.034;2023-09-19T13:13:24;4.80;;;2.30;;
20421;SDS011;10370;53.102;18.034;2023-09-19T13:18:50;9.60;;;2.40;;
20421;SDS011;10370;53.102;18.034;2023-09-19T13:24:24;4.75;;;2.30;;
20421;SDS011;10370;53.102;18.034;2023-09-19T13:29:51;4.90;;;2.40;;
20421;SDS011;10370;53.102;18.034;2023-09-19T13:35:14;6.45;;;2.55;;
20421;SDS011;10370;53.102;18.034;2023-09-19T13:40:38;6.18;;;2.67;;
20421;SDS011;10370;53.102;18.034;2023-09-19T13:46:01;4.55;;;2.75;;
20421;SDS011;10370;53.102;18.034;2023-09-19T13:51:25;7.15;;;2.55;;
20421;SDS011;10370;53.102;18.034;2023-09-19T13:56:48;5.20;;;2.72;;
20421;SDS011;10370;53.102;18.034;2023-09-19T14:02:11;7.82;;;3.20;;
20421;SDS011;10370;53.102;18.034;2023-09-19T14:07:36;4.85;;;2.78;;
20421;SDS011;10370;53.102;18.034;2023-09-19T14:12:58;7.53;;;3.28;;
20421;SDS011;10370;53.102;18.034;2023-09-19T14:18:21;7.32;;;3.17;;
20421;SDS011;10370;53.102;18.034;2023-09-19T14:23:44;5.70;;;3.08;;
20421;SDS011;10370;53.102;18.034;2023-09-19T14:29:07;5.75;;;3.20;;
20421;SDS011;10370;53.102;18.034;2023-09-19T14:34:31;12.90;;;3.50;;
20421;SDS011;10370;53.102;18.034;2023-09-19T14:39:55;8.27;;;3.35;;
20421;SDS011;10370;53.102;18.034;2023-09-19T14:45:17;5.60;;;3.58;;
20421;SDS011;10370;53.102;18.034;2023-09-19T14:50:40;10.05;;;3.95;;
20421;SDS011;10370;53.102;18.034;2023-09-19T14:56:03;7.90;;;3.83;;
20421;SDS011;10370;53.102;18.034;2023-09-19T15:01:27;7.68;;;4.22;;
20421;SDS011;10370;53.102;18.034;2023-09-19T15:06:50;6.85;;;3.83;;
20421;SDS011;10370;53.102;18.034;2023-09-19T15:12:16;8.63;;;3.85;;
20421;SDS011;10370;53.102;18.034;2023-09-19T15:17:39;7.00;;;3.60;;
20421;SDS011;10370;53.102;18.034;2023-09-19T15:23:02;10.85;;;4.15;;
20421;SDS011;10370;53.102;18.034;2023-09-19T15:28:25;9.35;;;4.00;;
20421;SDS011;10370;53.102;18.034;2023-09-19T15:33:48;7.78;;;4.18;;
20421;SDS011;10370;53.102;18.034;2023-09-19T15:39:10;9.30;;;3.92;;
20421;SDS011;10370;53.102;18.034;2023-09-19T15:44:33;7.30;;;3.83;;
20421;SDS011;10370;53.102;18.034;2023-09-19T15:49:56;8.57;;;3.90;;
20421;SDS011;10370;53.102;18.034;2023-09-19T15:55:19;7.22;;;4.47;;
20421;SDS011;10370;53.102;18.034;2023-09-19T16:00:42;8.88;;;4.18;;
20421;SDS011;10370;53.102;18.034;2023-09-19T16:06:11;8.63;;;3.78;;
20421;SDS011;10370;53.102;18.034;2023-09-19T16:11:35;7.07;;;4.50;;
20421;SDS011;10370;53.102;18.034;2023-09-19T16:16:58;8.85;;;3.90;;
20421;SDS011;10370;53.102;18.034;2023-09-19T16:22:21;7.40;;;4.60;;
20421;SDS011;10370;53.102;18.034;2023-09-19T16:27:44;17.30;;;7.38;;
20421;SDS011;10370;53.102;18.034;2023-09-19T16:33:07;29.05;;;8.90;;
20421;SDS011;10370;53.102;18.034;2023-09-19T16:38:29;14.23;;;5.75;;
20421;SDS011;10370;53.102;18.034;2023-09-19T16:43:52;13.00;;;7.18;;
20421;SDS011;10370;53.102;18.034;2023-09-19T16:49:14;12.75;;;6.10;;
20421;SDS011;10370;53.102;18.034;2023-09-19T16:54:37;7.32;;;5.10;;
20421;SDS011;10370;53.102;18.034;2023-09-19T17:00:01;16.05;;;6.07;;
20421;SDS011;10370;53.102;18.034;2023-09-19T17:05:24;9.32;;;4.85;;
20421;SDS011;10370;53.102;18.034;2023-09-19T17:10:48;8.32;;;5.25;;
20421;SDS011;10370;53.102;18.034;2023-09-19T17:16:11;11.07;;;5.38;;
20421;SDS011;10370;53.102;18.034;2023-09-19T17:21:36;10.55;;;5.72;;
20421;SDS011;10370;53.102;18.034;2023-09-19T17:26:59;10.75;;;6.00;;
20421;SDS011;10370;53.102;18.034;2023-09-19T17:32:22;11.38;;;6.38;;
20421;SDS011;10370;53.102;18.034;2023-09-19T17:37:44;15.15;;;6.47;;
20421;SDS011;10370;53.102;18.034;2023-09-19T17:43:07;11.98;;;6.25;;
20421;SDS011;10370;53.102;18.034;2023-09-19T17:48:33;10.40;;;5.80;;
20421;SDS011;10370;53.102;18.034;2023-09-19T17:53:58;11.55;;;6.45;;
20421;SDS011;10370;53.102;18.034;2023-09-19T17:59:24;12.63;;;6.22;;
20421;SDS011;10370;53.102;18.034;2023-09-19T18:04:46;22.10;;;11.65;;
20421;SDS011;10370;53.102;18.034;2023-09-19T18:10:09;18.45;;;10.23;;
20421;SDS011;10370;53.102;18.034;2023-09-19T18:15:32;15.75;;;9.07;;
20421;SDS011;10370;53.102;18.034;2023-09-19T18:26:49;30.98;;;7.53;;
20421;SDS011;10370;53.102;18.034;2023-09-19T18:32:11;20.20;;;7.68;;
20421;SDS011;10370;53.102;18.034;2023-09-19T18:37:34;26.40;;;10.30;;
20421;SDS011;10370;53.102;18.034;2023-09-19T18:42:57;12.52;;;6.80;;
20421;SDS011;10370;53.102;18.034;2023-09-19T18:48:19;11.73;;;7.32;;
20421;SDS011;10370;53.102;18.034;2023-09-19T18:53:42;12.88;;;7.15;;
20421;SDS011;10370;53.102;18.034;2023-09-19T18:59:14;13.85;;;6.90;;
20421;SDS011;10370;53.102;18.034;2023-09-19T19:04:37;15.18;;;7.20;;
20421;SDS011;10370;53.102;18.034;2023-09-19T19:10:04;12.98;;;6.72;;
20421;SDS011;10370;53.102;18.034;2023-09-19T19:15:29;16.33;;;7.53;;
20421;SDS011;10370;53.102;18.034;2023-09-19T19:20:59;13.65;;;6.80;;
20421;SDS011;10370;53.102;18.034;2023-09-19T19:26:22;13.30;;;6.53;;
20421;SDS011;10370;53.102;18.034;2023-09-19T19:31:46;13.43;;;6.25;;
20421;SDS011;10370;53.102;18.034;2023-09-19T19:37:08;13.27;;;6.38;;
20421;SDS011;10370;53.102;18.034;2023-09-19T19:42:33;11.38;;;6.18;;
20421;SDS011;10370;53.102;18.034;2023-09-19T19:47:57;12.13;;;7.22;;
20421;SDS011;10370;53.102;18.034;2023-09-19T19:53:20;15.20;;;9.20;;
20421;SDS011;10370;53.102;18.034;2023-09-19T19:58:46;15.32;;;10.75;;
20421;SDS011;10370;53.102;18.034;2023-09-19T20:04:09;16.98;;;7.68;;
20421;SDS011;10370;53.102;18.034;2023-09-19T20:09:33;33.08;;;14.15;;
20421;SDS011;10370;53.102;18.034;2023-09-19T20:14:56;10.43;;;6.30;;
20421;SDS011;10370;53.102;18.034;2023-09-19T20:20:19;10.50;;;6.05;;
20421;SDS011;10370;53.102;18.034;2023-09-19T20:25:44;13.73;;;6.43;;
20421;SDS011;10370;53.102;18.034;2023-09-19T20:30:48;12.55;;;6.18;;
20421;SDS011;10370;53.102;18.034;2023-09-19T20:36:11;14.32;;;6.40;;
20421;SDS011;10370;53.102;18.034;2023-09-19T20:41:36;17.85;;;9.68;;
20421;SDS011;10370;53.102;18.034;2023-09-19T20:46:59;13.18;;;6.72;;
20421;SDS011;10370;53.102;18.034;2023-09-19T20:52:22;13.38;;;6.82;;
20421;SDS011;10370;53.102;18.034;2023-09-19T20:57:46;21.48;;;9.38;;
20421;SDS011;10370;53.102;18.034;2023-09-19T21:03:08;18.10;;;7.68;;
20421;SDS011;10370;53.102;18.034;2023-09-19T21:08:35;13.52;;;6.65;;
20421;SDS011;10370;53.102;18.034;2023-09-19T21:13:58;13.93;;;5.82;;
20421;SDS011;10370;53.102;18.034;2023-09-19T21:19:21;9.13;;;5.68;;
20421;SDS011;10370;53.102;18.034;2023-09-19T21:24:46;13.30;;;6.10;;
20421;SDS011;10370;53.102;18.034;2023-09-19T21:30:10;12.82;;;6.18;;
20421;SDS011;10370;53.102;18.034;2023-09-19T21:35:43;13.82;;;6.47;;
20421;SDS011;10370;53.102;18.034;2023-09-19T21:41:07;14.60;;;6.25;;
20421;SDS011;10370;53.102;18.034;2023-09-19T21:46:31;11.00;;;5.63;;
20421;SDS011;10370;53.102;18.034;2023-09-19T21:51:53;14.63;;;6.38;;
20421;SDS011;10370;53.102;18.034;2023-09-19T21:57:16;14.35;;;6.45;;
20421;SDS011;10370;53.102;18.034;2023-09-19T22:02:38;15.25;;;7.38;;
20421;SDS011;10370;53.102;18.034;2023-09-19T22:08:01;15.20;;;7.10;;
20421;SDS011;10370;53.102;18.034;2023-09-19T22:13:26;12.30;;;6.57;;
20421;SDS011;10370;53.102;18.034;2023-09-19T22:18:50;12.75;;;7.03;;
20421;SDS011;10370;53.102;18.034;2023-09-19T22:24:13;15.32;;;7.07;;
20421;SDS011;10370;53.102;18.034;2023-09-19T22:29:44;13.38;;;7.13;;
20421;SDS011;10370;53.102;18.034;2023-09-19T22:35:06;16.70;;;7.50;;
20421;SDS011;10370;53.102;18.034;2023-09-19T22:40:29;14.07;;;7.68;;
20421;SDS011;10370;53.102;18.034;2023-09-19T22:45:53;17.02;;;7.75;;
20421;SDS011;10370;53.102;18.034;2023-09-19T22:51:16;12.50;;;7.35;;
20421;SDS011;10370;53.102;18.034;2023-09-19T22:56:57;15.52;;;6.80;;
20421;SDS011;10370;53.102;18.034;2023-09-19T23:08:11;16.33;;;7.50;;
20421;SDS011;10370;53.102;18.034;2023-09-19T23:13:34;14.88;;;8.02;;
20421;SDS011;10370;53.102;18.034;2023-09-19T23:19:00;13.52;;;7.97;;
20421;SDS011;10370;53.102;18.034;2023-09-19T23:24:47;13.02;;;7.20;;
20421;SDS011;10370;53.102;18.034;2023-09-19T23:30:14;14.07;;;7.57;;
20421;SDS011;10370;53.102;18.034;2023-09-19T23:35:40;11.38;;;7.00;;
20421;SDS011;10370;53.102;18.034;2023-09-19T23:41:02;15.68;;;7.80;;
20421;SDS011;10370;53.102;18.034;2023-09-19T23:46:28;13.25;;;7.10;;
20421;SDS011;10370;53.102;18.034;2023-09-19T23:51:54;15.55;;;7.70;;
20421;SDS011;10370;53.102;18.034;2023-09-19T23:57:18;14.50;;;7.55;;
